sensor_id;sensor_type;location;lat;lon;timestamp;pressure;altitude;pressure_sealevel;temperature;humidity
9822;BME280;4950;46.042;14.472;2023-03-03T00:00:28;98145.16;;;4.96;89.53
9822;BME280;4950;46.042;14.472;2023-03-03T00:02:57;98147.31;;;4.91;89.27
9822;BME280;4950;46.042;14.472;2023-03-03T00:05:25;98133.63;;;4.90;89.47
9822;BME280;4950;46.042;14.472;2023-03-03T00:07:52;98144.97;;;4.88;89.34
9822;BME280;4950;46.042;14.472;2023-03-03T00:10:20;98132.56;;;4.93;89.10
9822;BME280;4950;46.042;14.472;2023-03-03T00:12:48;98134.66;;;4.78;89.24
9822;BME280;4950;46.042;14.472;2023-03-03T00:15:17;98134.38;;;4.71;90.00
9822;BME280;4950;46.042;14.472;2023-03-03T00:17:45;98132.75;;;4.70;90.34
9822;BME280;4950;46.042;14.472;2023-03-03T00:20:29;98125.59;;;4.74;90.62
9822;BME280;4950;46.042;14.472;2023-03-03T00:23:08;98125.06;;;4.80;90.83
9822;BME280;4950;46.042;14.472;2023-03-03T00:25:42;98129.00;;;4.84;90.32
9822;BME280;4950;46.042;14.472;2023-03-03T00:28:19;98115.84;;;4.78;90.23
9822;BME280;4950;46.042;14.472;2023-03-03T00:30:50;98121.97;;;4.77;90.50
9822;BME280;4950;46.042;14.472;2023-03-03T00:33:24;98121.69;;;4.80;90.55
9822;BME280;4950;46.042;14.472;2023-03-03T00:35:54;98115.06;;;4.77;90.26
9822;BME280;4950;46.042;14.472;2023-03-03T00:38:21;98119.38;;;4.77;90.38
9822;BME280;4950;46.042;14.472;2023-03-03T00:40:49;98116.81;;;4.77;90.35
9822;BME280;4950;46.042;14.472;2023-03-03T00:43:18;98111.25;;;4.71;90.28
9822;BME280;4950;46.042;14.472;2023-03-03T00:45:47;98116.22;;;4.63;90.88
9822;BME280;4950;46.042;14.472;2023-03-03T00:48:23;98110.09;;;4.54;91.16
9822;BME280;4950;46.042;14.472;2023-03-03T00:50:51;98116.56;;;4.49;91.78
9822;BME280;4950;46.042;14.472;2023-03-03T00:53:19;98115.88;;;4.47;91.41
9822;BME280;4950;46.042;14.472;2023-03-03T00:55:47;98102.34;;;4.45;91.97
9822;BME280;4950;46.042;14.472;2023-03-03T00:58:16;98105.22;;;4.51;91.96
9822;BME280;4950;46.042;14.472;2023-03-03T01:00:46;98099.69;;;4.56;91.77
9822;BME280;4950;46.042;14.472;2023-03-03T01:03:16;98096.31;;;4.55;91.27
9822;BME280;4950;46.042;14.472;2023-03-03T01:05:43;98093.34;;;4.60;91.67
9822;BME280;4950;46.042;14.472;2023-03-03T01:08:10;98090.91;;;4.59;91.40
9822;BME280;4950;46.042;14.472;2023-03-03T01:10:40;98087.38;;;4.50;91.27
9822;BME280;4950;46.042;14.472;2023-03-03T01:13:09;98082.34;;;4.48;91.74
9822;BME280;4950;46.042;14.472;2023-03-03T01:15:39;98079.25;;;4.54;91.55
9822;BME280;4950;46.042;14.472;2023-03-03T01:18:06;98079.38;;;4.53;91.51
9822;BME280;4950;46.042;14.472;2023-03-03T01:20:33;98070.63;;;4.55;91.33
9822;BME280;4950;46.042;14.472;2023-03-03T01:22:59;98069.81;;;4.55;91.19
9822;BME280;4950;46.042;14.472;2023-03-03T01:25:26;98070.34;;;4.59;90.98
9822;BME280;4950;46.042;14.472;2023-03-03T01:27:53;98073.88;;;4.58;90.98
9822;BME280;4950;46.042;14.472;2023-03-03T01:30:20;98069.66;;;4.57;90.93
9822;BME280;4950;46.042;14.472;2023-03-03T01:32:48;98061.69;;;4.60;90.91
9822;BME280;4950;46.042;14.472;2023-03-03T01:35:15;98054.78;;;4.60;90.93
9822;BME280;4950;46.042;14.472;2023-03-03T01:37:42;98045.97;;;4.63;90.97
9822;BME280;4950;46.042;14.472;2023-03-03T01:40:13;98050.19;;;4.64;90.78
9822;BME280;4950;46.042;14.472;2023-03-03T01:42:40;98044.13;;;4.65;90.85
9822;BME280;4950;46.042;14.472;2023-03-03T01:45:14;98045.84;;;4.64;90.34
9822;BME280;4950;46.042;14.472;2023-03-03T01:47:45;98046.50;;;4.57;90.60
9822;BME280;4950;46.042;14.472;2023-03-03T01:50:24;98045.84;;;4.54;91.17
9822;BME280;4950;46.042;14.472;2023-03-03T01:52:52;98041.38;;;4.57;91.04
9822;BME280;4950;46.042;14.472;2023-03-03T01:55:21;98035.69;;;4.53;91.15
9822;BME280;4950;46.042;14.472;2023-03-03T01:57:53;98038.81;;;4.57;91.17
9822;BME280;4950;46.042;14.472;2023-03-03T02:00:22;98027.97;;;4.53;91.44
9822;BME280;4950;46.042;14.472;2023-03-03T02:02:49;98031.91;;;4.47;91.65
9822;BME280;4950;46.042;14.472;2023-03-03T02:05:18;98035.28;;;4.48;91.71
9822;BME280;4950;46.042;14.472;2023-03-03T02:07:45;98024.03;;;4.49;91.95
9822;BME280;4950;46.042;14.472;2023-03-03T02:10:14;98026.88;;;4.46;92.23
9822;BME280;4950;46.042;14.472;2023-03-03T02:12:43;98025.56;;;4.51;92.19
9822;BME280;4950;46.042;14.472;2023-03-03T02:15:14;98026.34;;;4.52;92.02
9822;BME280;4950;46.042;14.472;2023-03-03T02:17:41;98030.13;;;4.48;91.67
9822;BME280;4950;46.042;14.472;2023-03-03T02:20:11;98022.97;;;4.42;92.05
9822;BME280;4950;46.042;14.472;2023-03-03T02:22:48;98013.72;;;4.39;91.91
9822;BME280;4950;46.042;14.472;2023-03-03T02:25:22;98016.72;;;4.44;91.93
9822;BME280;4950;46.042;14.472;2023-03-03T02:27:52;98015.25;;;4.42;92.14
9822;BME280;4950;46.042;14.472;2023-03-03T02:30:23;98010.22;;;4.40;91.44
9822;BME280;4950;46.042;14.472;2023-03-03T02:32:50;98014.00;;;4.36;91.91
9822;BME280;4950;46.042;14.472;2023-03-03T02:35:26;98004.78;;;4.33;92.02
9822;BME280;4950;46.042;14.472;2023-03-03T02:37:55;98008.06;;;4.35;92.34
9822;BME280;4950;46.042;14.472;2023-03-03T02:40:27;98007.22;;;4.35;92.23
9822;BME280;4950;46.042;14.472;2023-03-03T02:43:00;98007.34;;;4.33;92.29
9822;BME280;4950;46.042;14.472;2023-03-03T02:45:28;98005.50;;;4.35;92.46
9822;BME280;4950;46.042;14.472;2023-03-03T02:47:55;97999.41;;;4.37;92.37
9822;BME280;4950;46.042;14.472;2023-03-03T02:50:22;98000.75;;;4.41;92.25
9822;BME280;4950;46.042;14.472;2023-03-03T02:52:48;98007.63;;;4.30;92.07
9822;BME280;4950;46.042;14.472;2023-03-03T02:55:15;98002.63;;;4.29;92.86
9822;BME280;4950;46.042;14.472;2023-03-03T02:57:42;97998.16;;;4.31;92.84
9822;BME280;4950;46.042;14.472;2023-03-03T03:00:11;97999.81;;;4.32;92.82
9822;BME280;4950;46.042;14.472;2023-03-03T03:02:38;97998.16;;;4.31;93.01
9822;BME280;4950;46.042;14.472;2023-03-03T03:05:05;97997.06;;;4.33;92.95
9822;BME280;4950;46.042;14.472;2023-03-03T03:07:33;97999.66;;;4.33;92.79
9822;BME280;4950;46.042;14.472;2023-03-03T03:10:00;97998.72;;;4.34;92.39
9822;BME280;4950;46.042;14.472;2023-03-03T03:12:26;97994.91;;;4.29;92.84
9822;BME280;4950;46.042;14.472;2023-03-03T03:14:53;98002.75;;;4.27;92.81
9822;BME280;4950;46.042;14.472;2023-03-03T03:17:21;97999.09;;;4.20;92.87
9822;BME280;4950;46.042;14.472;2023-03-03T03:19:48;97994.09;;;4.19;92.98
9822;BME280;4950;46.042;14.472;2023-03-03T03:22:15;98001.91;;;4.17;93.21
9822;BME280;4950;46.042;14.472;2023-03-03T03:24:41;97999.78;;;4.22;92.95
9822;BME280;4950;46.042;14.472;2023-03-03T03:27:08;97995.31;;;4.24;92.56
9822;BME280;4950;46.042;14.472;2023-03-03T03:29:35;98006.13;;;4.18;92.69
9822;BME280;4950;46.042;14.472;2023-03-03T03:32:01;98002.56;;;4.09;92.54
9822;BME280;4950;46.042;14.472;2023-03-03T03:34:29;98005.94;;;4.10;92.74
9822;BME280;4950;46.042;14.472;2023-03-03T03:36:56;97998.66;;;4.15;92.89
9822;BME280;4950;46.042;14.472;2023-03-03T03:39:23;98000.56;;;4.13;92.39
9822;BME280;4950;46.042;14.472;2023-03-03T03:41:50;98004.44;;;4.07;93.04
9822;BME280;4950;46.042;14.472;2023-03-03T03:44:16;97997.50;;;3.98;93.44
9822;BME280;4950;46.042;14.472;2023-03-03T03:46:43;98000.53;;;4.03;93.34
9822;BME280;4950;46.042;14.472;2023-03-03T03:49:10;98003.53;;;4.08;93.14
9822;BME280;4950;46.042;14.472;2023-03-03T03:51:38;97996.47;;;4.01;93.33
9822;BME280;4950;46.042;14.472;2023-03-03T03:54:06;98003.22;;;4.02;93.99
9822;BME280;4950;46.042;14.472;2023-03-03T03:56:33;98003.22;;;4.02;93.31
9822;BME280;4950;46.042;14.472;2023-03-03T03:58:59;97995.38;;;4.03;93.86
9822;BME280;4950;46.042;14.472;2023-03-03T04:01:26;97988.19;;;3.97;93.58
9822;BME280;4950;46.042;14.472;2023-03-03T04:03:53;97991.56;;;3.98;94.20
9822;BME280;4950;46.042;14.472;2023-03-03T04:06:19;97989.56;;;4.01;94.10
9822;BME280;4950;46.042;14.472;2023-03-03T04:08:48;97990.66;;;3.99;93.55
9822;BME280;4950;46.042;14.472;2023-03-03T04:11:14;97994.03;;;3.99;94.04
9822;BME280;4950;46.042;14.472;2023-03-03T04:13:42;97992.00;;;4.03;94.44
9822;BME280;4950;46.042;14.472;2023-03-03T04:16:09;97991.88;;;4.04;93.96
9822;BME280;4950;46.042;14.472;2023-03-03T04:18:35;97990.00;;;4.06;94.12
9822;BME280;4950;46.042;14.472;2023-03-03T04:21:02;97990.69;;;4.08;93.84
9822;BME280;4950;46.042;14.472;2023-03-03T04:23:29;97994.72;;;4.11;94.31
9822;BME280;4950;46.042;14.472;2023-03-03T04:25:57;97998.66;;;4.15;94.05
9822;BME280;4950;46.042;14.472;2023-03-03T04:28:24;97990.28;;;4.13;93.81
9822;BME280;4950;46.042;14.472;2023-03-03T04:30:51;97991.09;;;4.13;93.69
9822;BME280;4950;46.042;14.472;2023-03-03T04:33:18;97997.75;;;4.16;94.03
9822;BME280;4950;46.042;14.472;2023-03-03T04:35:44;97994.88;;;4.19;94.03
9822;BME280;4950;46.042;14.472;2023-03-03T04:38:11;97988.81;;;4.20;93.90
9822;BME280;4950;46.042;14.472;2023-03-03T04:40:39;97987.47;;;4.16;93.35
9822;BME280;4950;46.042;14.472;2023-03-03T04:43:07;97986.50;;;4.17;93.69
9822;BME280;4950;46.042;14.472;2023-03-03T04:45:35;97987.47;;;4.16;93.93
9822;BME280;4950;46.042;14.472;2023-03-03T04:48:02;97985.13;;;4.13;93.54
9822;BME280;4950;46.042;14.472;2023-03-03T04:50:28;97990.97;;;4.15;93.60
9822;BME280;4950;46.042;14.472;2023-03-03T04:52:55;97987.31;;;4.18;94.26
9822;BME280;4950;46.042;14.472;2023-03-03T04:55:22;97990.03;;;4.16;93.62
9822;BME280;4950;46.042;14.472;2023-03-03T04:57:49;97987.19;;;4.19;93.76
9822;BME280;4950;46.042;14.472;2023-03-03T05:00:17;97987.19;;;4.19;93.75
9822;BME280;4950;46.042;14.472;2023-03-03T05:02:46;97993.81;;;4.22;93.48
9822;BME280;4950;46.042;14.472;2023-03-03T05:05:13;97988.66;;;4.22;93.77
9822;BME280;4950;46.042;14.472;2023-03-03T05:07:40;97991.91;;;4.24;93.66
9822;BME280;4950;46.042;14.472;2023-03-03T05:10:07;97989.50;;;4.22;93.66
9822;BME280;4950;46.042;14.472;2023-03-03T05:12:34;97983.81;;;4.19;93.81
9822;BME280;4950;46.042;14.472;2023-03-03T05:15:01;97987.97;;;4.20;93.83
9822;BME280;4950;46.042;14.472;2023-03-03T05:17:29;97985.72;;;4.26;93.53
9822;BME280;4950;46.042;14.472;2023-03-03T05:19:56;97986.09;;;4.22;93.67
9822;BME280;4950;46.042;14.472;2023-03-03T05:22:23;97987.19;;;4.19;93.57
9822;BME280;4950;46.042;14.472;2023-03-03T05:24:50;97983.81;;;4.19;93.76
9822;BME280;4950;46.042;14.472;2023-03-03T05:27:18;97984.63;;;4.19;93.82
9822;BME280;4950;46.042;14.472;2023-03-03T05:29:45;97983.00;;;4.18;94.09
9822;BME280;4950;46.042;14.472;2023-03-03T05:32:11;97987.97;;;4.20;93.92
9822;BME280;4950;46.042;14.472;2023-03-03T05:34:40;97983.41;;;4.23;94.01
9822;BME280;4950;46.042;14.472;2023-03-03T05:37:06;97979.91;;;4.24;93.72
9822;BME280;4950;46.042;14.472;2023-03-03T05:39:33;97982.72;;;4.21;94.06
9822;BME280;4950;46.042;14.472;2023-03-03T05:42:00;97993.69;;;4.23;93.80
9822;BME280;4950;46.042;14.472;2023-03-03T05:44:27;97987.63;;;4.24;94.16
9822;BME280;4950;46.042;14.472;2023-03-03T05:46:54;97987.63;;;4.24;94.07
9822;BME280;4950;46.042;14.472;2023-03-03T05:49:22;97992.75;;;4.24;94.21
9822;BME280;4950;46.042;14.472;2023-03-03T05:51:50;97993.69;;;4.23;94.28
9822;BME280;4950;46.042;14.472;2023-03-03T05:54:16;97998.81;;;4.23;94.23
9822;BME280;4950;46.042;14.472;2023-03-03T05:56:43;98000.84;;;4.29;94.45
9822;BME280;4950;46.042;14.472;2023-03-03T05:59:10;98004.25;;;4.30;94.63
9822;BME280;4950;46.042;14.472;2023-03-03T06:01:36;98011.97;;;4.30;94.40
9822;BME280;4950;46.042;14.472;2023-03-03T06:04:03;98017.47;;;4.25;94.51
9822;BME280;4950;46.042;14.472;2023-03-03T06:06:30;98015.88;;;4.24;94.84
9822;BME280;4950;46.042;14.472;2023-03-03T06:08:58;98019.69;;;4.30;95.06
9822;BME280;4950;46.042;14.472;2023-03-03T06:11:25;98020.38;;;4.32;94.65
9822;BME280;4950;46.042;14.472;2023-03-03T06:13:51;98017.13;;;4.40;94.76
9822;BME280;4950;46.042;14.472;2023-03-03T06:16:18;98020.09;;;4.45;95.25
9822;BME280;4950;46.042;14.472;2023-03-03T06:18:45;98024.31;;;4.46;95.37
9822;BME280;4950;46.042;14.472;2023-03-03T06:21:12;98028.34;;;4.39;95.93
9822;BME280;4950;46.042;14.472;2023-03-03T06:23:38;98028.88;;;4.32;95.96
9822;BME280;4950;46.042;14.472;2023-03-03T06:26:07;98033.34;;;4.30;96.01
9822;BME280;4950;46.042;14.472;2023-03-03T06:28:33;98039.03;;;4.34;96.18
9822;BME280;4950;46.042;14.472;2023-03-03T06:31:00;98034.97;;;4.41;95.95
9822;BME280;4950;46.042;14.472;2023-03-03T06:33:27;98037.28;;;4.44;95.93
9822;BME280;4950;46.042;14.472;2023-03-03T06:35:53;98041.50;;;4.45;95.59
9822;BME280;4950;46.042;14.472;2023-03-03T06:38:20;98043.91;;;4.47;94.93
9822;BME280;4950;46.042;14.472;2023-03-03T06:40:47;98038.78;;;4.47;95.07
9822;BME280;4950;46.042;14.472;2023-03-03T06:43:15;98044.75;;;4.47;95.07
9822;BME280;4950;46.042;14.472;2023-03-03T06:45:42;98047.03;;;4.50;94.87
9822;BME280;4950;46.042;14.472;2023-03-03T06:48:10;98051.09;;;4.53;95.12
9822;BME280;4950;46.042;14.472;2023-03-03T06:50:37;98056.13;;;4.54;95.07
9822;BME280;4950;46.042;14.472;2023-03-03T06:53:10;98055.59;;;4.61;95.27
9822;BME280;4950;46.042;14.472;2023-03-03T06:55:37;98057.22;;;4.62;94.67
9822;BME280;4950;46.042;14.472;2023-03-03T06:58:08;98058.44;;;4.58;94.95
9822;BME280;4950;46.042;14.472;2023-03-03T07:00:37;98056.53;;;4.60;95.12
9822;BME280;4950;46.042;14.472;2023-03-03T07:03:07;98060.47;;;4.64;94.98
9822;BME280;4950;46.042;14.472;2023-03-03T07:05:37;98064.13;;;4.61;94.93
9822;BME280;4950;46.042;14.472;2023-03-03T07:08:08;98069.13;;;4.63;94.79
9822;BME280;4950;46.042;14.472;2023-03-03T07:10:38;98074.41;;;4.61;95.05
9822;BME280;4950;46.042;14.472;2023-03-03T07:13:16;98066.97;;;4.58;95.62
9822;BME280;4950;46.042;14.472;2023-03-03T07:15:45;98068.59;;;4.59;95.41
9822;BME280;4950;46.042;14.472;2023-03-03T07:18:23;98070.22;;;4.60;95.21
9822;BME280;4950;46.042;14.472;2023-03-03T07:20:51;98078.59;;;4.62;95.36
9822;BME280;4950;46.042;14.472;2023-03-03T07:23:21;98081.44;;;4.59;95.23
9822;BME280;4950;46.042;14.472;2023-03-03T07:25:49;98077.66;;;4.63;95.72
9822;BME280;4950;46.042;14.472;2023-03-03T07:28:21;98077.53;;;4.65;95.88
9822;BME280;4950;46.042;14.472;2023-03-03T07:30:50;98081.72;;;4.66;95.45
9822;BME280;4950;46.042;14.472;2023-03-03T07:33:22;98088.09;;;4.71;95.38
9822;BME280;4950;46.042;14.472;2023-03-03T07:35:51;98084.16;;;4.67;94.57
9822;BME280;4950;46.042;14.472;2023-03-03T07:38:30;98093.50;;;4.68;94.77
9822;BME280;4950;46.042;14.472;2023-03-03T07:40:58;98081.59;;;4.67;94.77
9822;BME280;4950;46.042;14.472;2023-03-03T07:43:30;98085.66;;;4.70;94.77
9822;BME280;4950;46.042;14.472;2023-03-03T07:48:44;98087.81;;;4.74;94.61
9822;BME280;4950;46.042;14.472;2023-03-03T07:51:15;98095.28;;;4.78;94.55
9822;BME280;4950;46.042;14.472;2023-03-03T07:53:44;98092.84;;;4.76;94.59
9822;BME280;4950;46.042;14.472;2023-03-03T07:56:16;98085.00;;;4.78;94.82
9822;BME280;4950;46.042;14.472;2023-03-03T07:58:47;98094.38;;;4.88;95.03
9822;BME280;4950;46.042;14.472;2023-03-03T08:01:40;98092.72;;;4.87;94.28
9822;BME280;4950;46.042;14.472;2023-03-03T08:04:14;98095.06;;;4.90;94.46
9822;BME280;4950;46.042;14.472;2023-03-03T08:06:44;98096.78;;;4.90;94.74
9822;BME280;4950;46.042;14.472;2023-03-03T08:09:34;98098.44;;;4.91;95.13
9822;BME280;4950;46.042;14.472;2023-03-03T08:14:57;98095.59;;;5.04;95.39
9822;BME280;4950;46.042;14.472;2023-03-03T08:17:35;98099.00;;;5.04;95.24
9822;BME280;4950;46.042;14.472;2023-03-03T08:22:49;98096.00;;;5.09;95.45
9822;BME280;4950;46.042;14.472;2023-03-03T08:25:16;98095.59;;;5.13;95.39
9822;BME280;4950;46.042;14.472;2023-03-03T08:27:43;98100.38;;;5.18;95.14
9822;BME280;4950;46.042;14.472;2023-03-03T08:30:10;98104.41;;;5.21;95.26
9822;BME280;4950;46.042;14.472;2023-03-03T08:32:39;98096.69;;;5.21;94.98
9822;BME280;4950;46.042;14.472;2023-03-03T08:35:06;98105.09;;;5.23;95.24
9822;BME280;4950;46.042;14.472;2023-03-03T08:37:33;98104.72;;;5.27;94.59
9822;BME280;4950;46.042;14.472;2023-03-03T08:39:59;98105.38;;;5.29;94.98
9822;BME280;4950;46.042;14.472;2023-03-03T08:42:26;98099.41;;;5.29;95.07
9822;BME280;4950;46.042;14.472;2023-03-03T08:44:54;98096.84;;;5.29;94.91
9822;BME280;4950;46.042;14.472;2023-03-03T08:47:21;98102.94;;;5.28;95.23
9822;BME280;4950;46.042;14.472;2023-03-03T08:49:49;98101.97;;;5.29;95.00
9822;BME280;4950;46.042;14.472;2023-03-03T08:52:16;98103.50;;;5.31;95.10
9822;BME280;4950;46.042;14.472;2023-03-03T08:54:42;98102.41;;;5.34;95.07
9822;BME280;4950;46.042;14.472;2023-03-03T08:57:09;98103.88;;;5.37;95.21
9822;BME280;4950;46.042;14.472;2023-03-03T08:59:36;98110.53;;;5.39;94.93
9822;BME280;4950;46.042;14.472;2023-03-03T09:02:03;98108.47;;;5.43;94.94
9822;BME280;4950;46.042;14.472;2023-03-03T09:04:30;98107.41;;;5.45;95.28
9822;BME280;4950;46.042;14.472;2023-03-03T09:06:58;98110.66;;;5.47;95.29
9822;BME280;4950;46.042;14.472;2023-03-03T09:09:25;98108.47;;;5.52;95.21
9822;BME280;4950;46.042;14.472;2023-03-03T09:11:53;98117.44;;;5.58;94.91
9822;BME280;4950;46.042;14.472;2023-03-03T09:14:27;98114.59;;;5.61;95.01
9822;BME280;4950;46.042;14.472;2023-03-03T09:16:55;98121.91;;;5.66;94.95
9822;BME280;4950;46.042;14.472;2023-03-03T09:19:25;98124.88;;;5.71;94.96
9822;BME280;4950;46.042;14.472;2023-03-03T09:21:52;98125.13;;;5.78;94.94
9822;BME280;4950;46.042;14.472;2023-03-03T09:24:25;98126.91;;;5.77;94.12
9822;BME280;4950;46.042;14.472;2023-03-03T09:26:53;98123.09;;;5.81;94.27
9822;BME280;4950;46.042;14.472;2023-03-03T09:29:25;98126.22;;;5.85;94.11
9822;BME280;4950;46.042;14.472;2023-03-03T09:31:53;98118.22;;;5.88;93.56
9822;BME280;4950;46.042;14.472;2023-03-03T09:34:23;98127.72;;;5.97;93.49
9822;BME280;4950;46.042;14.472;2023-03-03T09:36:51;98123.63;;;6.04;93.25
9822;BME280;4950;46.042;14.472;2023-03-03T09:39:19;98131.91;;;6.08;92.72
9822;BME280;4950;46.042;14.472;2023-03-03T09:42:26;98129.31;;;6.18;92.34
9822;BME280;4950;46.042;14.472;2023-03-03T09:45:23;98126.59;;;6.19;90.73
9822;BME280;4950;46.042;14.472;2023-03-03T09:48:03;98132.81;;;6.26;90.10
9822;BME280;4950;46.042;14.472;2023-03-03T09:50:43;98130.50;;;6.33;90.01
9822;BME280;4950;46.042;14.472;2023-03-03T09:53:20;98128.16;;;6.40;89.25
9822;BME280;4950;46.042;14.472;2023-03-03T09:55:56;98131.41;;;6.42;88.52
9822;BME280;4950;46.042;14.472;2023-03-03T09:58:33;98137.22;;;6.44;87.50
9822;BME280;4950;46.042;14.472;2023-03-03T10:04:27;98128.66;;;6.53;87.06
9822;BME280;4950;46.042;14.472;2023-03-03T10:07:13;98130.78;;;6.58;86.71
9822;BME280;4950;46.042;14.472;2023-03-03T10:10:02;98134.03;;;6.60;86.95
9822;BME280;4950;46.042;14.472;2023-03-03T10:12:35;98140.53;;;6.64;87.29
9822;BME280;4950;46.042;14.472;2023-03-03T10:15:15;98134.66;;;6.71;87.01
9822;BME280;4950;46.042;14.472;2023-03-03T10:17:50;98136.53;;;6.79;86.97
9822;BME280;4950;46.042;14.472;2023-03-03T10:20:49;98140.44;;;6.83;85.98
9822;BME280;4950;46.042;14.472;2023-03-03T10:23:20;98134.06;;;6.87;85.95
9822;BME280;4950;46.042;14.472;2023-03-03T10:26:02;98135.75;;;6.97;86.03
9822;BME280;4950;46.042;14.472;2023-03-03T10:29:04;98139.00;;;6.99;86.53
9822;BME280;4950;46.042;14.472;2023-03-03T10:31:52;98145.13;;;6.98;85.49
9822;BME280;4950;46.042;14.472;2023-03-03T10:34:40;98139.38;;;7.04;86.00
9822;BME280;4950;46.042;14.472;2023-03-03T10:37:18;98138.59;;;7.03;84.78
9822;BME280;4950;46.042;14.472;2023-03-03T10:40:07;98141.31;;;7.02;84.79
9822;BME280;4950;46.042;14.472;2023-03-03T10:42:52;98141.59;;;6.99;84.10
9822;BME280;4950;46.042;14.472;2023-03-03T10:45:34;98152.13;;;6.87;84.50
9822;BME280;4950;46.042;14.472;2023-03-03T10:48:28;98140.84;;;6.88;83.19
9822;BME280;4950;46.042;14.472;2023-03-03T10:51:09;98139.81;;;6.71;83.64
9822;BME280;4950;46.042;14.472;2023-03-03T10:53:43;98143.28;;;6.62;83.67
9822;BME280;4950;46.042;14.472;2023-03-03T10:56:24;98147.22;;;6.57;84.38
9822;BME280;4950;46.042;14.472;2023-03-03T10:59:03;98147.91;;;6.59;85.45
9822;BME280;4950;46.042;14.472;2023-03-03T11:01:44;98146.53;;;6.64;85.88
9822;BME280;4950;46.042;14.472;2023-03-03T11:04:21;98146.22;;;6.67;85.14
9822;BME280;4950;46.042;14.472;2023-03-03T11:06:55;98139.19;;;6.60;85.71
9822;BME280;4950;46.042;14.472;2023-03-03T11:09:45;98135.00;;;6.59;85.07
9822;BME280;4950;46.042;14.472;2023-03-03T11:12:28;98133.75;;;6.63;84.61
9822;BME280;4950;46.042;14.472;2023-03-03T11:15:14;98137.16;;;6.63;84.44
9822;BME280;4950;46.042;14.472;2023-03-03T11:17:56;98128.94;;;6.40;84.88
9822;BME280;4950;46.042;14.472;2023-03-03T11:20:35;98130.16;;;6.46;85.92
9822;BME280;4950;46.042;14.472;2023-03-03T11:23:17;98131.22;;;6.53;85.30
9822;BME280;4950;46.042;14.472;2023-03-03T11:25:53;98126.78;;;6.45;86.09
9822;BME280;4950;46.042;14.472;2023-03-03T11:28:31;98129.78;;;6.41;86.75
9822;BME280;4950;46.042;14.472;2023-03-03T11:31:13;98131.16;;;6.35;86.81
9822;BME280;4950;46.042;14.472;2023-03-03T11:33:46;98128.59;;;6.35;85.92
9822;BME280;4950;46.042;14.472;2023-03-03T11:36:25;98120.97;;;6.33;86.38
9822;BME280;4950;46.042;14.472;2023-03-03T11:38:56;98121.66;;;6.36;86.66
9822;BME280;4950;46.042;14.472;2023-03-03T11:41:34;98123.56;;;6.33;86.28
9822;BME280;4950;46.042;14.472;2023-03-03T11:44:17;98120.59;;;6.28;86.95
9822;BME280;4950;46.042;14.472;2023-03-03T11:46:49;98123.69;;;6.32;86.67
9822;BME280;4950;46.042;14.472;2023-03-03T11:49:21;98122.75;;;6.33;86.95
9822;BME280;4950;46.042;14.472;2023-03-03T11:52:00;98121.38;;;6.39;86.94
9822;BME280;4950;46.042;14.472;2023-03-03T11:54:33;98116.22;;;6.39;87.18
9822;BME280;4950;46.042;14.472;2023-03-03T11:57:13;98117.03;;;6.39;87.39
9822;BME280;4950;46.042;14.472;2023-03-03T11:59:49;98119.31;;;6.42;87.48
9822;BME280;4950;46.042;14.472;2023-03-03T12:02:34;98113.59;;;6.48;87.50
9822;BME280;4950;46.042;14.472;2023-03-03T12:05:11;98116.28;;;6.57;87.48
9822;BME280;4950;46.042;14.472;2023-03-03T12:07:46;98110.69;;;6.61;86.60
9822;BME280;4950;46.042;14.472;2023-03-03T12:10:22;98110.69;;;6.61;87.20
9822;BME280;4950;46.042;14.472;2023-03-03T12:12:56;98107.00;;;6.64;86.96
9822;BME280;4950;46.042;14.472;2023-03-03T12:15:30;98112.28;;;6.72;86.71
9822;BME280;4950;46.042;14.472;2023-03-03T12:18:11;98106.53;;;6.78;84.93
9822;BME280;4950;46.042;14.472;2023-03-03T12:20:46;98101.66;;;6.75;85.14
9822;BME280;4950;46.042;14.472;2023-03-03T12:23:51;98095.97;;;6.71;85.05
9822;BME280;4950;46.042;14.472;2023-03-03T12:26:27;98099.94;;;6.66;85.28
9822;BME280;4950;46.042;14.472;2023-03-03T12:28:59;98093.25;;;6.73;84.63
9822;BME280;4950;46.042;14.472;2023-03-03T12:31:39;98097.59;;;6.72;84.97
9822;BME280;4950;46.042;14.472;2023-03-03T12:34:15;98093.78;;;6.77;84.62
9822;BME280;4950;46.042;14.472;2023-03-03T12:37:12;98095.25;;;6.79;85.17
9822;BME280;4950;46.042;14.472;2023-03-03T12:39:52;98090.09;;;6.79;84.77
9822;BME280;4950;46.042;14.472;2023-03-03T12:42:35;98083.59;;;6.75;85.03
9822;BME280;4950;46.042;14.472;2023-03-03T12:45:27;98091.19;;;6.77;85.45
9822;BME280;4950;46.042;14.472;2023-03-03T12:47:59;98089.66;;;6.84;85.31
9822;BME280;4950;46.042;14.472;2023-03-03T12:50:35;98089.38;;;6.87;85.51
9822;BME280;4950;46.042;14.472;2023-03-03T12:53:16;98085.31;;;6.84;84.74
9822;BME280;4950;46.042;14.472;2023-03-03T12:55:52;98086.13;;;6.85;84.11
9822;BME280;4950;46.042;14.472;2023-03-03T12:58:31;98091.41;;;6.83;84.19
9822;BME280;4950;46.042;14.472;2023-03-03T13:01:10;98085.31;;;6.84;84.39
9822;BME280;4950;46.042;14.472;2023-03-03T13:03:46;98083.19;;;6.80;84.16
9822;BME280;4950;46.042;14.472;2023-03-03T13:06:21;98087.63;;;6.87;83.80
9822;BME280;4950;46.042;14.472;2023-03-03T13:08:59;98087.75;;;6.86;83.56
9822;BME280;4950;46.042;14.472;2023-03-03T13:11:48;98082.16;;;6.90;84.10
9822;BME280;4950;46.042;14.472;2023-03-03T13:14:27;98078.03;;;6.80;84.87
9822;BME280;4950;46.042;14.472;2023-03-03T13:17:04;98081.53;;;6.79;84.94
9822;BME280;4950;46.042;14.472;2023-03-03T13:19:39;98079.03;;;6.87;84.98
9822;BME280;4950;46.042;14.472;2023-03-03T13:22:11;98084.19;;;6.87;84.59
9822;BME280;4950;46.042;14.472;2023-03-03T13:24:54;98080.16;;;6.84;85.38
9822;BME280;4950;46.042;14.472;2023-03-03T13:27:26;98082.59;;;6.86;84.70
9822;BME280;4950;46.042;14.472;2023-03-03T13:29:59;98080.91;;;6.95;83.91
9822;BME280;4950;46.042;14.472;2023-03-03T13:32:34;98087.16;;;6.92;83.93
9822;BME280;4950;46.042;14.472;2023-03-03T13:35:07;98086.50;;;6.90;85.16
9822;BME280;4950;46.042;14.472;2023-03-03T13:37:36;98081.94;;;7.02;84.24
9822;BME280;4950;46.042;14.472;2023-03-03T13:40:14;98082.41;;;6.97;83.63
9822;BME280;4950;46.042;14.472;2023-03-03T13:42:46;98078.56;;;7.01;83.60
9822;BME280;4950;46.042;14.472;2023-03-03T13:45:19;98078.44;;;6.93;83.60
9822;BME280;4950;46.042;14.472;2023-03-03T13:47:53;98081.34;;;6.90;84.39
9822;BME280;4950;46.042;14.472;2023-03-03T13:50:29;98082.66;;;6.94;84.79
9822;BME280;4950;46.042;14.472;2023-03-03T13:53:11;98087.44;;;6.89;83.92
9822;BME280;4950;46.042;14.472;2023-03-03T13:55:44;98062.97;;;6.93;84.49
9822;BME280;4950;46.042;14.472;2023-03-03T13:58:23;98073.06;;;6.86;84.33